sensor_id;sensor_type;location;lat;lon;timestamp;pressure;altitude;pressure_sealevel;temperature;humidity
26487;BME280;14425;56.136;40.360;2022-12-07T00:01:15;101059.28;;;-9.44;79.13
26487;BME280;14425;56.136;40.360;2022-12-07T00:03:41;101066.59;;;-9.51;79.15
26487;BME280;14425;56.136;40.360;2022-12-07T00:06:08;101068.28;;;-9.39;77.44
26487;BME280;14425;56.136;40.360;2022-12-07T00:08:34;101072.59;;;-9.19;75.69
26487;BME280;14425;56.136;40.360;2022-12-07T00:11:05;101069.91;;;-9.82;78.72
26487;BME280;14425;56.136;40.360;2022-12-07T00:13:31;101074.94;;;-9.63;78.87
26487;BME280;14425;56.136;40.360;2022-12-07T00:16:04;101070.16;;;-9.86;79.10
26487;BME280;14425;56.136;40.360;2022-12-07T00:18:30;101065.06;;;-9.75;79.44
26487;BME280;14425;56.136;40.360;2022-12-07T00:21:06;101061.06;;;-9.43;78.62
26487;BME280;14425;56.136;40.360;2022-12-07T00:23:32;101063.75;;;-8.86;75.13
26487;BME280;14425;56.136;40.360;2022-12-07T00:26:03;101066.59;;;-9.51;75.77
26487;BME280;14425;56.136;40.360;2022-12-07T00:28:28;101062.59;;;-9.19;76.40
26487;BME280;14425;56.136;40.360;2022-12-07T00:30:59;101068.59;;;-9.24;75.63
26487;BME280;14425;56.136;40.360;2022-12-07T00:33:24;101053.72;;;-9.54;76.73
26487;BME280;14425;56.136;40.360;2022-12-07T00:35:54;101068.34;;;-10.06;79.05
26487;BME280;14425;56.136;40.360;2022-12-07T00:38:20;101069.63;;;-9.78;78.78
26487;BME280;14425;56.136;40.360;2022-12-07T00:40:53;101070.00;;;-9.88;80.02
26487;BME280;14425;56.136;40.360;2022-12-07T00:43:18;101069.81;;;-9.95;81.25
26487;BME280;14425;56.136;40.360;2022-12-07T00:45:43;101059.94;;;-9.26;77.40
26487;BME280;14425;56.136;40.360;2022-12-07T00:48:09;101067.19;;;-9.59;76.81
26487;BME280;14425;56.136;40.360;2022-12-07T00:50:34;101064.25;;;-10.05;79.73
26487;BME280;14425;56.136;40.360;2022-12-07T00:52:59;101057.19;;;-9.59;78.34
26487;BME280;14425;56.136;40.360;2022-12-07T00:55:24;101065.56;;;-9.77;78.41
26487;BME280;14425;56.136;40.360;2022-12-07T00:57:50;101069.28;;;-9.87;79.92
26487;BME280;14425;56.136;40.360;2022-12-07T01:00:15;101068.31;;;-10.30;81.12
26487;BME280;14425;56.136;40.360;2022-12-07T01:02:40;101079.34;;;-10.41;82.40
26487;BME280;14425;56.136;40.360;2022-12-07T01:05:06;101064.22;;;-10.29;83.50
26487;BME280;14425;56.136;40.360;2022-12-07T01:07:31;101074.75;;;-10.37;83.13
26487;BME280;14425;56.136;40.360;2022-12-07T01:09:56;101074.59;;;-10.20;82.12
26487;BME280;14425;56.136;40.360;2022-12-07T01:12:22;101067.63;;;-10.05;82.38
26487;BME280;14425;56.136;40.360;2022-12-07T01:14:47;101072.47;;;-10.36;81.97
26487;BME280;14425;56.136;40.360;2022-12-07T01:17:12;101063.88;;;-10.38;82.94
26487;BME280;14425;56.136;40.360;2022-12-07T01:19:38;101061.88;;;-9.74;80.56
26487;BME280;14425;56.136;40.360;2022-12-07T01:22:03;101070.91;;;-9.32;77.45
26487;BME280;14425;56.136;40.360;2022-12-07T01:24:28;101065.00;;;-9.88;78.27
26487;BME280;14425;56.136;40.360;2022-12-07T01:26:53;101074.28;;;-9.87;78.90
26487;BME280;14425;56.136;40.360;2022-12-07T01:29:19;101078.53;;;-10.04;78.84
26487;BME280;14425;56.136;40.360;2022-12-07T01:31:44;101073.75;;;-10.27;80.31
26487;BME280;14425;56.136;40.360;2022-12-07T01:34:09;101062.78;;;-9.73;79.00
26487;BME280;14425;56.136;40.360;2022-12-07T01:36:35;101062.44;;;-10.30;79.66
26487;BME280;14425;56.136;40.360;2022-12-07T01:39:02;101059.28;;;-10.59;82.67
26487;BME280;14425;56.136;40.360;2022-12-07T01:41:29;101060.59;;;-10.50;83.21
26487;BME280;14425;56.136;40.360;2022-12-07T01:46:38;101069.53;;;-10.33;82.31
26487;BME280;14425;56.136;40.360;2022-12-07T01:49:04;101061.31;;;-9.84;79.53
26487;BME280;14425;56.136;40.360;2022-12-07T01:51:31;101054.66;;;-9.78;77.90
26487;BME280;14425;56.136;40.360;2022-12-07T01:53:56;101064.19;;;-10.24;79.56
26487;BME280;14425;56.136;40.360;2022-12-07T01:56:23;101058.28;;;-10.00;79.09
26487;BME280;14425;56.136;40.360;2022-12-07T01:58:49;101061.47;;;-9.40;75.72
26487;BME280;14425;56.136;40.360;2022-12-07T02:01:16;101050.91;;;-9.13;73.22
26487;BME280;14425;56.136;40.360;2022-12-07T02:03:42;101054.75;;;-9.28;72.17
26487;BME280;14425;56.136;40.360;2022-12-07T02:06:09;101060.72;;;-9.94;74.58
26487;BME280;14425;56.136;40.360;2022-12-07T02:08:35;101053.78;;;-9.41;73.25
26487;BME280;14425;56.136;40.360;2022-12-07T02:11:04;101055.78;;;-9.76;74.55
26487;BME280;14425;56.136;40.360;2022-12-07T02:13:32;101060.38;;;-10.03;76.03
26487;BME280;14425;56.136;40.360;2022-12-07T02:23:27;101055.31;;;-10.22;77.39
26487;BME280;14425;56.136;40.360;2022-12-07T02:28:55;101055.31;;;-10.22;78.16
26487;BME280;14425;56.136;40.360;2022-12-07T02:31:26;101057.22;;;-10.08;78.78
26487;BME280;14425;56.136;40.360;2022-12-07T02:34:39;101065.84;;;-10.06;76.57
26487;BME280;14425;56.136;40.360;2022-12-07T02:36:43;101060.47;;;-9.90;76.34
26487;BME280;14425;56.136;40.360;2022-12-07T02:39:16;101072.94;;;-10.14;77.58
26487;BME280;14425;56.136;40.360;2022-12-07T02:41:47;101069.16;;;-9.75;76.38
26487;BME280;14425;56.136;40.360;2022-12-07T02:44:16;101072.13;;;-9.78;76.59
26487;BME280;14425;56.136;40.360;2022-12-07T02:49:53;101072.69;;;-10.64;81.41
26487;BME280;14425;56.136;40.360;2022-12-07T02:52:18;101078.13;;;-10.61;81.45
26487;BME280;14425;56.136;40.360;2022-12-07T02:54:44;101076.72;;;-10.53;79.72
26487;BME280;14425;56.136;40.360;2022-12-07T03:10:13;101065.00;;;-10.36;80.92
26487;BME280;14425;56.136;40.360;2022-12-07T03:12:44;101069.34;;;-10.16;80.24
26487;BME280;14425;56.136;40.360;2022-12-07T03:15:12;101061.63;;;-10.36;79.33
26487;BME280;14425;56.136;40.360;2022-12-07T03:17:39;101068.59;;;-10.58;80.48
26487;BME280;14425;56.136;40.360;2022-12-07T03:20:07;101057.91;;;-10.87;82.22
26487;BME280;14425;56.136;40.360;2022-12-07T03:22:34;101059.63;;;-10.39;80.43
26487;BME280;14425;56.136;40.360;2022-12-07T03:25:03;101060.91;;;-10.95;82.42
26487;BME280;14425;56.136;40.360;2022-12-07T03:27:44;101060.44;;;-10.63;82.17
26487;BME280;14425;56.136;40.360;2022-12-07T03:30:20;101067.16;;;-10.80;80.98
26487;BME280;14425;56.136;40.360;2022-12-07T03:33:20;101062.84;;;-11.17;84.05
26487;BME280;14425;56.136;40.360;2022-12-07T03:35:40;101061.53;;;-10.55;81.00
26487;BME280;14425;56.136;40.360;2022-12-07T03:40:34;101059.69;;;-10.86;81.90
26487;BME280;14425;56.136;40.360;2022-12-07T03:43:00;101072.22;;;-10.91;81.29
26487;BME280;14425;56.136;40.360;2022-12-07T03:45:43;101058.56;;;-10.82;82.06
26487;BME280;14425;56.136;40.360;2022-12-07T03:48:15;101048.16;;;-10.85;82.19
26487;BME280;14425;56.136;40.360;2022-12-07T03:50:53;101050.66;;;-10.85;81.87
26487;BME280;14425;56.136;40.360;2022-12-07T03:53:41;101053.84;;;-10.56;80.32
26487;BME280;14425;56.136;40.360;2022-12-07T03:56:05;101048.38;;;-11.25;83.65
26487;BME280;14425;56.136;40.360;2022-12-07T03:58:31;101046.19;;;-10.99;83.91
26487;BME280;14425;56.136;40.360;2022-12-07T04:00:57;101046.41;;;-11.33;83.71
26487;BME280;14425;56.136;40.360;2022-12-07T04:03:23;101052.47;;;-11.25;85.37
26487;BME280;14425;56.136;40.360;2022-12-07T04:05:48;101056.25;;;-11.16;83.66
26487;BME280;14425;56.136;40.360;2022-12-07T04:08:14;101048.44;;;-10.95;83.53
26487;BME280;14425;56.136;40.360;2022-12-07T04:10:39;101051.47;;;-11.09;82.46
26487;BME280;14425;56.136;40.360;2022-12-07T04:13:04;101061.69;;;-11.13;82.97
26487;BME280;14425;56.136;40.360;2022-12-07T04:15:30;101060.38;;;-11.22;82.70
26487;BME280;14425;56.136;40.360;2022-12-07T04:17:55;101048.88;;;-11.33;83.79
26487;BME280;14425;56.136;40.360;2022-12-07T04:20:20;101061.06;;;-11.23;84.56
26487;BME280;14425;56.136;40.360;2022-12-07T04:22:46;101060.13;;;-10.83;81.69
26487;BME280;14425;56.136;40.360;2022-12-07T04:25:11;101046.13;;;-10.10;78.38
26487;BME280;14425;56.136;40.360;2022-12-07T04:27:37;101056.19;;;-10.69;79.34
26487;BME280;14425;56.136;40.360;2022-12-07T04:30:02;101056.22;;;-11.05;81.00
26487;BME280;14425;56.136;40.360;2022-12-07T04:32:28;101056.41;;;-10.68;80.16
26487;BME280;14425;56.136;40.360;2022-12-07T04:34:53;101058.78;;;-10.27;76.60
26487;BME280;14425;56.136;40.360;2022-12-07T04:37:19;101061.34;;;-10.92;77.95
26487;BME280;14425;56.136;40.360;2022-12-07T04:39:44;101057.72;;;-10.58;78.34
26487;BME280;14425;56.136;40.360;2022-12-07T04:42:09;101061.97;;;-10.82;77.70
26487;BME280;14425;56.136;40.360;2022-12-07T04:44:35;101059.19;;;-10.78;78.01
26487;BME280;14425;56.136;40.360;2022-12-07T04:47:00;101060.63;;;-11.26;80.08
26487;BME280;14425;56.136;40.360;2022-12-07T04:49:25;101058.78;;;-11.22;82.44
26487;BME280;14425;56.136;40.360;2022-12-07T04:51:51;101075.66;;;-11.02;80.11
26487;BME280;14425;56.136;40.360;2022-12-07T04:54:16;101066.59;;;-10.66;79.26
26487;BME280;14425;56.136;40.360;2022-12-07T04:56:42;101057.06;;;-10.33;77.79
26487;BME280;14425;56.136;40.360;2022-12-07T04:59:07;101066.75;;;-10.59;77.18
26487;BME280;14425;56.136;40.360;2022-12-07T05:01:33;101074.13;;;-10.72;76.54
26487;BME280;14425;56.136;40.360;2022-12-07T05:03:58;101075.75;;;-10.48;76.52
26487;BME280;14425;56.136;40.360;2022-12-07T05:06:24;101050.03;;;-10.12;75.27
26487;BME280;14425;56.136;40.360;2022-12-07T05:08:49;101066.13;;;-10.34;75.67
26487;BME280;14425;56.136;40.360;2022-12-07T05:11:14;101070.31;;;-10.81;79.26
26487;BME280;14425;56.136;40.360;2022-12-07T05:14:00;101066.78;;;-10.89;78.93
26487;BME280;14425;56.136;40.360;2022-12-07T05:16:25;101076.78;;;-11.47;81.64
26487;BME280;14425;56.136;40.360;2022-12-07T05:18:51;101073.88;;;-11.56;84.44
26487;BME280;14425;56.136;40.360;2022-12-07T05:21:16;101064.34;;;-11.00;81.91
26487;BME280;14425;56.136;40.360;2022-12-07T05:23:41;101070.97;;;-10.76;81.33
26487;BME280;14425;56.136;40.360;2022-12-07T05:26:07;101059.25;;;-10.29;78.09
26487;BME280;14425;56.136;40.360;2022-12-07T05:28:32;101073.66;;;-10.69;78.07
26487;BME280;14425;56.136;40.360;2022-12-07T05:30:57;101078.47;;;-10.76;78.36
26487;BME280;14425;56.136;40.360;2022-12-07T05:33:23;101079.78;;;-11.14;81.08
26487;BME280;14425;56.136;40.360;2022-12-07T05:35:48;101086.19;;;-11.27;83.12
26487;BME280;14425;56.136;40.360;2022-12-07T05:38:13;101081.72;;;-11.36;100.00
26487;BME280;14425;56.136;40.360;2022-12-07T05:40:38;101086.94;;;-10.93;83.41
26487;BME280;14425;56.136;40.360;2022-12-07T05:43:04;101086.66;;;-11.24;84.46
26487;BME280;14425;56.136;40.360;2022-12-07T05:45:29;101087.09;;;-11.21;84.39
26487;BME280;14425;56.136;40.360;2022-12-07T05:47:54;101096.63;;;-10.83;82.84
26487;BME280;14425;56.136;40.360;2022-12-07T05:50:20;101090.03;;;-11.18;82.89
26487;BME280;14425;56.136;40.360;2022-12-07T05:52:45;101090.69;;;-11.19;85.73
26487;BME280;14425;56.136;40.360;2022-12-07T05:55:10;101093.66;;;-11.22;84.53
26487;BME280;14425;56.136;40.360;2022-12-07T05:57:36;101095.97;;;-10.82;82.72
26487;BME280;14425;56.136;40.360;2022-12-07T06:00:01;101084.44;;;-10.93;84.97
26487;BME280;14425;56.136;40.360;2022-12-07T06:02:28;101093.88;;;-10.79;84.69
26487;BME280;14425;56.136;40.360;2022-12-07T06:04:53;101105.28;;;-10.92;85.95
26487;BME280;14425;56.136;40.360;2022-12-07T06:07:19;101104.16;;;-10.59;84.17
26487;BME280;14425;56.136;40.360;2022-12-07T06:09:44;101112.09;;;-10.56;81.90
26487;BME280;14425;56.136;40.360;2022-12-07T06:12:10;72866.59;;;-11.11;100.00
26487;BME280;14425;56.136;40.360;2022-12-07T06:14:54;101100.91;;;-10.23;82.82
26487;BME280;14425;56.136;40.360;2022-12-07T06:17:19;101101.75;;;-10.11;80.71
26487;BME280;14425;56.136;40.360;2022-12-07T06:19:45;57093.69;;;-145.77;100.00
26487;BME280;14425;56.136;40.360;2022-12-07T06:22:10;57093.69;;;-145.77;100.00
26487;BME280;14425;56.136;40.360;2022-12-07T06:24:36;57093.69;;;-145.77;100.00
26487;BME280;14425;56.136;40.360;2022-12-07T06:27:02;57093.69;;;-145.77;100.00
26487;BME280;14425;56.136;40.360;2022-12-07T06:29:28;57093.69;;;-145.77;100.00
26487;BME280;14425;56.136;40.360;2022-12-07T06:31:53;57093.69;;;-145.77;100.00
26487;BME280;14425;56.136;40.360;2022-12-07T06:34:19;57093.69;;;-145.77;100.00
26487;BME280;14425;56.136;40.360;2022-12-07T06:36:45;57093.69;;;-145.77;100.00
26487;BME280;14425;56.136;40.360;2022-12-07T06:39:12;57093.69;;;-145.77;100.00
26487;BME280;14425;56.136;40.360;2022-12-07T06:41:38;57093.69;;;-145.77;100.00
26487;BME280;14425;56.136;40.360;2022-12-07T06:44:04;57093.69;;;-145.77;100.00
26487;BME280;14425;56.136;40.360;2022-12-07T06:46:30;57093.69;;;-145.77;100.00
26487;BME280;14425;56.136;40.360;2022-12-07T06:48:55;57093.69;;;-145.77;100.00
26487;BME280;14425;56.136;40.360;2022-12-07T06:51:20;57093.69;;;-145.77;100.00
26487;BME280;14425;56.136;40.360;2022-12-07T06:53:46;57093.69;;;-145.77;100.00
26487;BME280;14425;56.136;40.360;2022-12-07T06:56:11;57093.69;;;-145.77;100.00
26487;BME280;14425;56.136;40.360;2022-12-07T06:58:38;57093.69;;;-145.77;100.00
26487;BME280;14425;56.136;40.360;2022-12-07T07:01:08;57093.69;;;-145.77;100.00
26487;BME280;14425;56.136;40.360;2022-12-07T07:03:33;57093.69;;;-145.77;100.00
26487;BME280;14425;56.136;40.360;2022-12-07T07:05:58;57093.69;;;-145.77;100.00
26487;BME280;14425;56.136;40.360;2022-12-07T07:08:23;57093.69;;;-145.77;100.00
26487;BME280;14425;56.136;40.360;2022-12-07T07:10:49;57093.69;;;-145.77;100.00
26487;BME280;14425;56.136;40.360;2022-12-07T07:13:14;57093.69;;;-145.77;100.00
26487;BME280;14425;56.136;40.360;2022-12-07T07:15:40;57093.69;;;-145.77;100.00
26487;BME280;14425;56.136;40.360;2022-12-07T07:18:05;57093.69;;;-145.77;100.00
26487;BME280;14425;56.136;40.360;2022-12-07T07:20:30;57093.69;;;-145.77;100.00
26487;BME280;14425;56.136;40.360;2022-12-07T07:22:56;57093.69;;;-145.77;100.00
26487;BME280;14425;56.136;40.360;2022-12-07T07:25:21;57093.69;;;-145.77;100.00
26487;BME280;14425;56.136;40.360;2022-12-07T07:27:47;57093.69;;;-145.77;100.00
26487;BME280;14425;56.136;40.360;2022-12-07T07:30:12;57093.69;;;-145.77;100.00
26487;BME280;14425;56.136;40.360;2022-12-07T07:32:37;57093.69;;;-145.77;100.00
26487;BME280;14425;56.136;40.360;2022-12-07T07:35:03;57093.69;;;-145.77;100.00
26487;BME280;14425;56.136;40.360;2022-12-07T07:37:28;57093.69;;;-145.77;100.00
26487;BME280;14425;56.136;40.360;2022-12-07T07:39:54;57093.69;;;-145.77;100.00
26487;BME280;14425;56.136;40.360;2022-12-07T07:42:19;57093.69;;;-145.77;100.00
26487;BME280;14425;56.136;40.360;2022-12-07T07:44:44;57093.69;;;-145.77;100.00
26487;BME280;14425;56.136;40.360;2022-12-07T07:47:10;57093.69;;;-145.77;100.00
26487;BME280;14425;56.136;40.360;2022-12-07T07:49:35;57093.69;;;-145.77;100.00
26487;BME280;14425;56.136;40.360;2022-12-07T07:52:01;57093.69;;;-145.77;100.00
26487;BME280;14425;56.136;40.360;2022-12-07T07:54:27;57093.69;;;-145.77;100.00
26487;BME280;14425;56.136;40.360;2022-12-07T07:56:52;57093.69;;;-145.77;100.00
26487;BME280;14425;56.136;40.360;2022-12-07T07:59:17;57093.69;;;-145.77;100.00
26487;BME280;14425;56.136;40.360;2022-12-07T08:01:43;57093.69;;;-145.77;100.00
26487;BME280;14425;56.136;40.360;2022-12-07T08:04:08;57093.69;;;-145.77;100.00
26487;BME280;14425;56.136;40.360;2022-12-07T08:06:33;57093.69;;;-145.77;100.00
26487;BME280;14425;56.136;40.360;2022-12-07T08:08:59;57093.69;;;-145.77;100.00
26487;BME280;14425;56.136;40.360;2022-12-07T08:11:24;57093.69;;;-145.77;100.00
26487;BME280;14425;56.136;40.360;2022-12-07T08:13:49;57093.69;;;-145.77;100.00
26487;BME280;14425;56.136;40.360;2022-12-07T08:16:18;57093.69;;;-145.77;100.00
26487;BME280;14425;56.136;40.360;2022-12-07T08:18:43;57093.69;;;-145.77;100.00
26487;BME280;14425;56.136;40.360;2022-12-07T08:21:13;57093.69;;;-145.77;100.00
26487;BME280;14425;56.136;40.360;2022-12-07T08:23:38;57093.69;;;-145.77;100.00
26487;BME280;14425;56.136;40.360;2022-12-07T08:26:05;57093.69;;;-145.77;100.00
26487;BME280;14425;56.136;40.360;2022-12-07T08:28:30;57093.69;;;-145.77;100.00
26487;BME280;14425;56.136;40.360;2022-12-07T08:30:59;57093.69;;;-145.77;100.00
26487;BME280;14425;56.136;40.360;2022-12-07T08:33:25;57093.69;;;-145.77;100.00
26487;BME280;14425;56.136;40.360;2022-12-07T08:35:51;57093.69;;;-145.77;100.00
26487;BME280;14425;56.136;40.360;2022-12-07T08:38:16;57093.69;;;-145.77;100.00
26487;BME280;14425;56.136;40.360;2022-12-07T08:40:42;57093.69;;;-145.77;100.00
26487;BME280;14425;56.136;40.360;2022-12-07T08:43:07;57093.69;;;-145.77;100.00
26487;BME280;14425;56.136;40.360;2022-12-07T08:45:32;57093.69;;;-145.77;100.00
26487;BME280;14425;56.136;40.360;2022-12-07T08:48:10;57093.69;;;-145.77;100.00
26487;BME280;14425;56.136;40.360;2022-12-07T08:50:38;57093.69;;;-145.77;100.00
26487;BME280;14425;56.136;40.360;2022-12-07T08:53:04;57093.69;;;-145.77;100.00
26487;BME280;14425;56.136;40.360;2022-12-07T08:55:30;57093.69;;;-145.77;100.00
26487;BME280;14425;56.136;40.360;2022-12-07T08:57:59;57093.69;;;-145.77;100.00
26487;BME280;14425;56.136;40.360;2022-12-07T09:00:25;57093.69;;;-145.77;100.00
26487;BME280;14425;56.136;40.360;2022-12-07T09:02:51;57093.69;;;-145.77;100.00
26487;BME280;14425;56.136;40.360;2022-12-07T09:05:16;57093.69;;;-145.77;100.00
26487;BME280;14425;56.136;40.360;2022-12-07T09:07:43;57093.69;;;-145.77;100.00
26487;BME280;14425;56.136;40.360;2022-12-07T09:10:08;57093.69;;;-145.77;100.00
26487;BME280;14425;56.136;40.360;2022-12-07T09:12:34;57093.69;;;-145.77;100.00
26487;BME280;14425;56.136;40.360;2022-12-07T09:15:00;57093.69;;;-145.77;100.00
26487;BME280;14425;56.136;40.360;2022-12-07T09:17:26;57093.69;;;-145.77;100.00
26487;BME280;14425;56.136;40.360;2022-12-07T09:19:51;57093.69;;;-145.77;100.00
26487;BME280;14425;56.136;40.360;2022-12-07T09:22:17;57093.69;;;-145.77;100.00
26487;BME280;14425;56.136;40.360;2022-12-07T09:24:42;57093.69;;;-145.77;100.00
26487;BME280;14425;56.136;40.360;2022-12-07T09:27:08;57093.69;;;-145.77;100.00
26487;BME280;14425;56.136;40.360;2022-12-07T09:29:34;57093.69;;;-145.77;100.00
26487;BME280;14425;56.136;40.360;2022-12-07T09:32:02;57093.69;;;-145.77;100.00
26487;BME280;14425;56.136;40.360;2022-12-07T09:34:30;57093.69;;;-145.77;100.00
26487;BME280;14425;56.136;40.360;2022-12-07T09:36:55;57093.69;;;-145.77;100.00
26487;BME280;14425;56.136;40.360;2022-12-07T09:39:24;57093.69;;;-145.77;100.00
26487;BME280;14425;56.136;40.360;2022-12-07T09:41:49;57093.69;;;-145.77;100.00
26487;BME280;14425;56.136;40.360;2022-12-07T09:44:18;57093.69;;;-145.77;100.00
26487;BME280;14425;56.136;40.360;2022-12-07T09:46:45;57093.69;;;-145.77;100.00
26487;BME280;14425;56.136;40.360;2022-12-07T09:49:16;57093.69;;;-145.77;100.00
26487;BME280;14425;56.136;40.360;2022-12-07T09:51:43;57093.69;;;-145.77;100.00
26487;BME280;14425;56.136;40.360;2022-12-07T09:54:09;57093.69;;;-145.77;100.00
26487;BME280;14425;56.136;40.360;2022-12-07T09:56:37;57093.69;;;-145.77;100.00
26487;BME280;14425;56.136;40.360;2022-12-07T09:59:03;57093.69;;;-145.77;100.00
26487;BME280;14425;56.136;40.360;2022-12-07T10:01:34;57093.69;;;-145.77;100.00
26487;BME280;14425;56.136;40.360;2022-12-07T10:04:10;57093.69;;;-145.77;100.00
26487;BME280;14425;56.136;40.360;2022-12-07T10:06:38;57093.69;;;-145.77;100.00
26487;BME280;14425;56.136;40.360;2022-12-07T10:09:14;57093.69;;;-145.77;100.00
26487;BME280;14425;56.136;40.360;2022-12-07T10:12:02;57093.69;;;-145.77;100.00
26487;BME280;14425;56.136;40.360;2022-12-07T10:14:25;57093.69;;;-145.77;100.00
26487;BME280;14425;56.136;40.360;2022-12-07T10:16:51;57093.69;;;-145.77;100.00
26487;BME280;14425;56.136;40.360;2022-12-07T10:24:32;57093.69;;;-145.77;100.00
26487;BME280;14425;56.136;40.360;2022-12-07T10:26:58;57093.69;;;-145.77;100.00
26487;BME280;14425;56.136;40.360;2022-12-07T10:29:33;57093.69;;;-145.77;100.00
26487;BME280;14425;56.136;40.360;2022-12-07T10:32:45;57093.69;;;-145.77;100.00
26487;BME280;14425;56.136;40.360;2022-12-07T10:34:48;57093.69;;;-145.77;100.00
26487;BME280;14425;56.136;40.360;2022-12-07T10:39:57;57093.69;;;-145.77;100.00
26487;BME280;14425;56.136;40.360;2022-12-07T10:42:23;57093.69;;;-145.77;100.00
26487;BME280;14425;56.136;40.360;2022-12-07T10:44:50;57093.69;;;-145.77;100.00
26487;BME280;14425;56.136;40.360;2022-12-07T10:52:25;57093.69;;;-145.77;100.00
26487;BME280;14425;56.136;40.360;2022-12-07T10:57:35;57093.69;;;-145.77;100.00
26487;BME280;14425;56.136;40.360;2022-12-07T11:05:15;57093.69;;;-145.77;100.00
26487;BME280;14425;56.136;40.360;2022-12-07T11:07:56;57093.69;;;-145.77;100.00
26487;BME280;14425;56.136;40.360;2022-12-07T11:10:33;57093.69;;;-145.77;100.00
26487;BME280;14425;56.136;40.360;2022-12-07T11:13:11;57093.69;;;-145.77;100.00
26487;BME280;14425;56.136;40.360;2022-12-07T11:18:14;57093.69;;;-145.77;100.00
26487;BME280;14425;56.136;40.360;2022-12-07T11:23:21;57093.69;;;-145.77;100.00
26487;BME280;14425;56.136;40.360;2022-12-07T11:26:04;57093.69;;;-145.77;100.00
26487;BME280;14425;56.136;40.360;2022-12-07T11:31:22;57093.69;;;-145.77;100.00
26487;BME280;14425;56.136;40.360;2022-12-07T11:33:53;57093.69;;;-145.77;100.00
26487;BME280;14425;56.136;40.360;2022-12-07T11:38:56;57093.69;;;-145.77;100.00
26487;BME280;14425;56.136;40.360;2022-12-07T11:41:26;57093.69;;;-145.77;100.00
26487;BME280;14425;56.136;40.360;2022-12-07T11:43:53;57093.69;;;-145.77;100.00
26487;BME280;14425;56.136;40.360;2022-12-07T11:46:19;57093.69;;;-145.77;100.00
26487;BME280;14425;56.136;40.360;2022-12-07T11:51:15;57093.69;;;-145.77;100.00
26487;BME280;14425;56.136;40.360;2022-12-07T11:53:57;57093.69;;;-145.77;100.00
26487;BME280;14425;56.136;40.360;2022-12-07T11:56:25;57093.69;;;-145.77;100.00
26487;BME280;14425;56.136;40.360;2022-12-07T11:58:57;57093.69;;;-145.77;100.00
26487;BME280;14425;56.136;40.360;2022-12-07T12:06:38;57093.69;;;-145.77;100.00
26487;BME280;14425;56.136;40.360;2022-12-07T12:09:05;57093.69;;;-145.77;100.00
26487;BME280;14425;56.136;40.360;2022-12-07T12:11:43;57093.69;;;-145.77;100.00
26487;BME280;14425;56.136;40.360;2022-12-07T12:17:03;57093.69;;;-145.77;100.00
26487;BME280;14425;56.136;40.360;2022-12-07T12:22:16;57093.69;;;-145.77;100.00
26487;BME280;14425;56.136;40.360;2022-12-07T12:24:42;57093.69;;;-145.77;100.00
26487;BME280;14425;56.136;40.360;2022-12-07T12:27:09;57093.69;;;-145.77;100.00
26487;BME280;14425;56.136;40.360;2022-12-07T12:29:40;57093.69;;;-145.77;100.00
26487;BME280;14425;56.136;40.360;2022-12-07T12:34:57;57093.69;;;-145.77;100.00
26487;BME280;14425;56.136;40.360;2022-12-07T12:37:38;57093.69;;;-145.77;100.00
26487;BME280;14425;56.136;40.360;2022-12-07T12:45:23;57093.69;;;-145.77;100.00
26487;BME280;14425;56.136;40.360;2022-12-07T12:57:34;57093.69;;;-145.77;100.00
26487;BME280;14425;56.136;40.360;2022-12-07T13:00:22;57093.69;;;-145.77;100.00
26487;BME280;14425;56.136;40.360;2022-12-07T13:02:51;57093.69;;;-145.77;100.00
26487;BME280;14425;56.136;40.360;2022-12-07T13:05:19;57093.69;;;-145.77;100.00
26487;BME280;14425;56.136;40.360;2022-12-07T13:17:58;57093.69;;;-145.77;100.00
26487;BME280;14425;56.136;40.360;2022-12-07T13:20:43;57093.69;;;-145.77;100.00
26487;BME280;14425;56.136;40.360;2022-12-07T13:23:09;57093.69;;;-145.77;100.00
26487;BME280;14425;56.136;40.360;2022-12-07T13:25:44;57093.69;;;-145.77;100.00
26487;BME280;14425;56.136;40.360;2022-12-07T13:28:15;57093.69;;;-145.77;100.00
26487;BME280;14425;56.136;40.360;2022-12-07T13:30:45;57093.69;;;-145.77;100.00
26487;BME280;14425;56.136;40.360;2022-12-07T13:33:12;57093.69;;;-145.77;100.00
26487;BME280;14425;56.136;40.360;2022-12-07T13:35:41;57093.69;;;-145.77;100.00
26487;BME280;14425;56.136;40.360;2022-12-07T13:43:49;57093.69;;;-145.77;100.00
26487;BME280;14425;56.136;40.360;2022-12-07T13:46:14;57093.69;;;-145.77;100.00
26487;BME280;14425;56.136;40.360;2022-12-07T13:48:44;57093.69;;;-145.77;100.00
26487;BME280;14425;56.136;40.360;2022-12-07T13:51:16;57093.69;;;-145.77;100.00
26487;BME280;14425;56.136;40.360;2022-12-07T13:53:49;57093.69;;;-145.77;100.00
26487;BME280;14425;56.136;40.360;2022-12-07T13:56:14;57093.69;;;-145.77;100.00
26487;BME280;14425;56.136;40.360;2022-12-07T13:58:41;57093.69;;;-145.77;100.00
26487;BME280;14425;56.136;40.360;2022-12-07T14:01:06;57093.69;;;-145.77;100.00
26487;BME280;14425;56.136;40.360;2022-12-07T14:03:33;57093.69;;;-145.77;100.00
26487;BME280;14425;56.136;40.360;2022-12-07T14:08:33;57093.69;;;-145.77;100.00
26487;BME280;14425;56.136;40.360;2022-12-07T14:10:58;57093.69;;;-145.77;100.00
26487;BME280;14425;56.136;40.360;2022-12-07T14:15:56;57093.69;;;-145.77;100.00
26487;BME280;14425;56.136;40.360;2022-12-07T14:20:52;57093.69;;;-145.77;100.00
26487;BME280;14425;56.136;40.360;2022-12-07T14:23:30;57093.69;;;-145.77;100.00
26487;BME280;14425;56.136;40.360;2022-12-07T14:26:04;57093.69;;;-145.77;100.00